sensor_id;sensor_type;location;lat;lon;timestamp;temperature;humidity
65231;DHT22;51813;40.666;16.602;2022-09-20T00:00:35;22.00;53.40
65231;DHT22;51813;40.666;16.602;2022-09-20T00:03:01;22.00;53.30
65231;DHT22;51813;40.666;16.602;2022-09-20T00:05:26;22.00;53.30
65231;DHT22;51813;40.666;16.602;2022-09-20T00:07:52;22.00;53.20
65231;DHT22;51813;40.666;16.602;2022-09-20T00:10:18;22.00;53.10
65231;DHT22;51813;40.666;16.602;2022-09-20T00:12:43;22.00;53.00
65231;DHT22;51813;40.666;16.602;2022-09-20T00:15:09;22.00;53.00
65231;DHT22;51813;40.666;16.602;2022-09-20T00:17:35;22.00;53.00
65231;DHT22;51813;40.666;16.602;2022-09-20T00:20:01;22.00;52.90
65231;DHT22;51813;40.666;16.602;2022-09-20T00:22:26;21.90;52.90
65231;DHT22;51813;40.666;16.602;2022-09-20T00:24:52;22.00;52.70
65231;DHT22;51813;40.666;16.602;2022-09-20T00:27:19;22.00;52.40
65231;DHT22;51813;40.666;16.602;2022-09-20T00:29:44;22.00;52.50
65231;DHT22;51813;40.666;16.602;2022-09-20T00:32:10;21.90;52.80
65231;DHT22;51813;40.666;16.602;2022-09-20T00:34:36;21.90;52.50
65231;DHT22;51813;40.666;16.602;2022-09-20T00:37:20;22.00;52.50
65231;DHT22;51813;40.666;16.602;2022-09-20T00:39:46;21.90;52.20
65231;DHT22;51813;40.666;16.602;2022-09-20T00:42:14;21.90;52.50
65231;DHT22;51813;40.666;16.602;2022-09-20T00:44:59;21.90;52.20
65231;DHT22;51813;40.666;16.602;2022-09-20T00:55:43;22.00;51.80
65231;DHT22;51813;40.666;16.602;2022-09-20T00:58:11;21.90;52.40
65231;DHT22;51813;40.666;16.602;2022-09-20T01:00:37;21.90;52.10
65231;DHT22;51813;40.666;16.602;2022-09-20T01:03:06;22.00;52.10
65231;DHT22;51813;40.666;16.602;2022-09-20T01:05:33;21.90;51.90
65231;DHT22;51813;40.666;16.602;2022-09-20T01:08:00;21.90;51.80
65231;DHT22;51813;40.666;16.602;2022-09-20T01:10:27;21.90;52.10
65231;DHT22;51813;40.666;16.602;2022-09-20T01:12:53;21.90;51.70
65231;DHT22;51813;40.666;16.602;2022-09-20T01:15:19;21.90;51.60
65231;DHT22;51813;40.666;16.602;2022-09-20T01:17:51;21.90;51.40
65231;DHT22;51813;40.666;16.602;2022-09-20T01:23:23;21.90;52.20
65231;DHT22;51813;40.666;16.602;2022-09-20T01:28:39;21.90;52.00
65231;DHT22;51813;40.666;16.602;2022-09-20T01:31:25;21.90;52.00
65231;DHT22;51813;40.666;16.602;2022-09-20T01:34:10;21.90;52.10
65231;DHT22;51813;40.666;16.602;2022-09-20T01:37:01;21.90;51.90
65231;DHT22;51813;40.666;16.602;2022-09-20T01:39:37;21.90;52.00
65231;DHT22;51813;40.666;16.602;2022-09-20T01:42:07;21.90;51.80
65231;DHT22;51813;40.666;16.602;2022-09-20T01:47:42;21.80;52.10
65231;DHT22;51813;40.666;16.602;2022-09-20T02:26:07;21.80;52.60
65231;DHT22;51813;40.666;16.602;2022-09-20T02:46:02;21.80;52.80
65231;DHT22;51813;40.666;16.602;2022-09-20T02:48:42;21.80;52.90
65231;DHT22;51813;40.666;16.602;2022-09-20T02:56:51;21.70;53.10
65231;DHT22;51813;40.666;16.602;2022-09-20T02:59:38;21.70;53.80
65231;DHT22;51813;40.666;16.602;2022-09-20T03:05:07;21.70;53.20
65231;DHT22;51813;40.666;16.602;2022-09-20T03:14:39;21.80;53.20
65231;DHT22;51813;40.666;16.602;2022-09-20T03:19:23;21.70;53.40
65231;DHT22;51813;40.666;16.602;2022-09-20T03:36:23;21.80;53.50
65231;DHT22;51813;40.666;16.602;2022-09-20T03:47:07;21.70;53.70
65231;DHT22;51813;40.666;16.602;2022-09-20T04:20:12;21.60;53.70
65231;DHT22;51813;40.666;16.602;2022-09-20T04:22:40;21.60;54.50
65231;DHT22;51813;40.666;16.602;2022-09-20T04:25:17;21.60;54.20
65231;DHT22;51813;40.666;16.602;2022-09-20T04:27:51;21.70;53.80
65231;DHT22;51813;40.666;16.602;2022-09-20T04:30:24;21.60;53.70
65231;DHT22;51813;40.666;16.602;2022-09-20T04:36:12;21.60;53.40
65231;DHT22;51813;40.666;16.602;2022-09-20T04:39:38;21.60;53.30
65231;DHT22;51813;40.666;16.602;2022-09-20T05:21:01;21.60;53.70
65231;DHT22;51813;40.666;16.602;2022-09-20T05:27:32;21.50;53.40
65231;DHT22;51813;40.666;16.602;2022-09-20T05:43:12;21.70;53.50
65231;DHT22;51813;40.666;16.602;2022-09-20T05:52:03;21.70;53.60
65231;DHT22;51813;40.666;16.602;2022-09-20T06:08:54;21.70;53.80
65231;DHT22;51813;40.666;16.602;2022-09-20T06:11:39;21.70;53.80
65231;DHT22;51813;40.666;16.602;2022-09-20T06:14:23;21.70;54.00
65231;DHT22;51813;40.666;16.602;2022-09-20T06:22:26;21.60;54.50
65231;DHT22;51813;40.666;16.602;2022-09-20T06:25:03;21.70;54.70
65231;DHT22;51813;40.666;16.602;2022-09-20T06:27:47;21.60;54.70
65231;DHT22;51813;40.666;16.602;2022-09-20T06:30:36;21.70;55.00
65231;DHT22;51813;40.666;16.602;2022-09-20T06:36:08;21.70;54.80
65231;DHT22;51813;40.666;16.602;2022-09-20T06:41:51;21.70;55.00
65231;DHT22;51813;40.666;16.602;2022-09-20T06:44:17;21.60;55.10
65231;DHT22;51813;40.666;16.602;2022-09-20T06:46:42;21.60;55.60
65231;DHT22;51813;40.666;16.602;2022-09-20T06:49:08;21.60;55.70
65231;DHT22;51813;40.666;16.602;2022-09-20T06:51:36;21.60;55.90
65231;DHT22;51813;40.666;16.602;2022-09-20T06:54:04;21.60;55.90
65231;DHT22;51813;40.666;16.602;2022-09-20T06:56:32;21.60;56.10
65231;DHT22;51813;40.666;16.602;2022-09-20T06:59:04;21.60;55.60
65231;DHT22;51813;40.666;16.602;2022-09-20T07:01:32;21.60;55.70
65231;DHT22;51813;40.666;16.602;2022-09-20T07:03:58;21.60;55.70
65231;DHT22;51813;40.666;16.602;2022-09-20T07:06:24;21.70;56.10
65231;DHT22;51813;40.666;16.602;2022-09-20T07:08:51;21.60;56.30
65231;DHT22;51813;40.666;16.602;2022-09-20T07:11:17;21.60;56.80
65231;DHT22;51813;40.666;16.602;2022-09-20T07:13:43;21.60;57.00
65231;DHT22;51813;40.666;16.602;2022-09-20T07:16:11;21.60;57.50
65231;DHT22;51813;40.666;16.602;2022-09-20T07:18:39;21.50;58.20
65231;DHT22;51813;40.666;16.602;2022-09-20T07:21:07;21.60;58.90
65231;DHT22;51813;40.666;16.602;2022-09-20T07:23:33;21.70;59.00
65231;DHT22;51813;40.666;16.602;2022-09-20T07:25:59;21.80;58.80
65231;DHT22;51813;40.666;16.602;2022-09-20T07:28:26;21.90;58.80
65231;DHT22;51813;40.666;16.602;2022-09-20T07:30:52;22.00;58.90
65231;DHT22;51813;40.666;16.602;2022-09-20T07:33:18;22.00;58.50
65231;DHT22;51813;40.666;16.602;2022-09-20T07:35:47;22.10;58.90
65231;DHT22;51813;40.666;16.602;2022-09-20T07:38:13;22.10;59.00
65231;DHT22;51813;40.666;16.602;2022-09-20T07:40:40;22.20;58.80
65231;DHT22;51813;40.666;16.602;2022-09-20T07:43:06;22.30;58.80
65231;DHT22;51813;40.666;16.602;2022-09-20T07:45:32;22.30;58.50
65231;DHT22;51813;40.666;16.602;2022-09-20T07:48:00;22.40;58.20
65231;DHT22;51813;40.666;16.602;2022-09-20T07:50:30;22.40;57.90
65231;DHT22;51813;40.666;16.602;2022-09-20T07:52:56;22.50;57.70
65231;DHT22;51813;40.666;16.602;2022-09-20T07:55:22;22.50;57.30
65231;DHT22;51813;40.666;16.602;2022-09-20T07:57:48;22.60;57.00
65231;DHT22;51813;40.666;16.602;2022-09-20T08:00:15;22.50;56.40
65231;DHT22;51813;40.666;16.602;2022-09-20T08:02:41;22.60;56.10
65231;DHT22;51813;40.666;16.602;2022-09-20T08:05:07;22.60;55.80
65231;DHT22;51813;40.666;16.602;2022-09-20T08:07:33;22.60;54.90
65231;DHT22;51813;40.666;16.602;2022-09-20T08:09:58;22.70;54.70
65231;DHT22;51813;40.666;16.602;2022-09-20T08:12:24;22.70;54.40
65231;DHT22;51813;40.666;16.602;2022-09-20T08:14:51;22.70;54.00
65231;DHT22;51813;40.666;16.602;2022-09-20T08:17:17;22.70;53.70
65231;DHT22;51813;40.666;16.602;2022-09-20T08:19:44;22.80;53.30
65231;DHT22;51813;40.666;16.602;2022-09-20T08:22:10;22.80;52.90
65231;DHT22;51813;40.666;16.602;2022-09-20T08:24:37;22.80;52.30
65231;DHT22;51813;40.666;16.602;2022-09-20T08:27:04;22.90;52.10
65231;DHT22;51813;40.666;16.602;2022-09-20T08:29:29;22.90;52.20
65231;DHT22;51813;40.666;16.602;2022-09-20T08:31:55;22.90;52.20
65231;DHT22;51813;40.666;16.602;2022-09-20T08:34:23;22.90;52.20
65231;DHT22;51813;40.666;16.602;2022-09-20T08:36:49;22.90;52.10
65231;DHT22;51813;40.666;16.602;2022-09-20T08:39:17;22.80;52.00
65231;DHT22;51813;40.666;16.602;2022-09-20T08:42:04;22.80;52.10
65231;DHT22;51813;40.666;16.602;2022-09-20T08:44:45;22.90;52.10
65231;DHT22;51813;40.666;16.602;2022-09-20T08:47:22;22.90;52.40
65231;DHT22;51813;40.666;16.602;2022-09-20T08:49:50;23.00;52.20
65231;DHT22;51813;40.666;16.602;2022-09-20T08:52:37;23.00;52.30
65231;DHT22;51813;40.666;16.602;2022-09-20T08:55:25;23.00;52.70
65231;DHT22;51813;40.666;16.602;2022-09-20T08:57:58;23.00;52.70
65231;DHT22;51813;40.666;16.602;2022-09-20T09:00:29;23.00;53.30
65231;DHT22;51813;40.666;16.602;2022-09-20T09:02:58;23.00;52.50
65231;DHT22;51813;40.666;16.602;2022-09-20T09:08:17;22.90;52.30
65231;DHT22;51813;40.666;16.602;2022-09-20T09:10:56;23.00;52.10
65231;DHT22;51813;40.666;16.602;2022-09-20T09:13:24;23.00;52.10
65231;DHT22;51813;40.666;16.602;2022-09-20T09:15:55;23.00;52.20
65231;DHT22;51813;40.666;16.602;2022-09-20T09:18:37;23.10;51.80
65231;DHT22;51813;40.666;16.602;2022-09-20T09:21:05;23.10;51.40
65231;DHT22;51813;40.666;16.602;2022-09-20T09:23:46;23.10;51.20
65231;DHT22;51813;40.666;16.602;2022-09-20T09:26:24;23.10;50.80
65231;DHT22;51813;40.666;16.602;2022-09-20T09:29:18;23.10;50.50
65231;DHT22;51813;40.666;16.602;2022-09-20T09:31:46;23.10;49.30
65231;DHT22;51813;40.666;16.602;2022-09-20T09:34:28;23.10;49.20
65231;DHT22;51813;40.666;16.602;2022-09-20T09:36:54;23.10;48.50
65231;DHT22;51813;40.666;16.602;2022-09-20T09:39:33;23.10;48.00
65231;DHT22;51813;40.666;16.602;2022-09-20T09:42:21;23.10;47.80
65231;DHT22;51813;40.666;16.602;2022-09-20T09:44:50;23.10;48.50
65231;DHT22;51813;40.666;16.602;2022-09-20T09:47:26;23.00;48.70
65231;DHT22;51813;40.666;16.602;2022-09-20T09:49:57;23.00;49.50
65231;DHT22;51813;40.666;16.602;2022-09-20T09:52:24;22.90;50.00
65231;DHT22;51813;40.666;16.602;2022-09-20T09:54:54;22.80;50.20
65231;DHT22;51813;40.666;16.602;2022-09-20T09:57:47;22.80;50.50
65231;DHT22;51813;40.666;16.602;2022-09-20T10:00:22;22.70;50.90
65231;DHT22;51813;40.666;16.602;2022-09-20T10:14:10;22.60;51.50
65231;DHT22;51813;40.666;16.602;2022-09-20T10:27:37;22.50;51.90
65231;DHT22;51813;40.666;16.602;2022-09-20T10:30:13;22.50;52.20
65231;DHT22;51813;40.666;16.602;2022-09-20T10:35:39;22.40;52.20
65231;DHT22;51813;40.666;16.602;2022-09-20T10:38:17;22.40;52.30
65231;DHT22;51813;40.666;16.602;2022-09-20T10:46:20;22.30;52.40
65231;DHT22;51813;40.666;16.602;2022-09-20T10:51:41;22.30;52.40
65231;DHT22;51813;40.666;16.602;2022-09-20T10:54:40;22.30;52.40
65231;DHT22;51813;40.666;16.602;2022-09-20T11:00:18;22.40;52.40
65231;DHT22;51813;40.666;16.602;2022-09-20T11:05:25;22.30;52.40
65231;DHT22;51813;40.666;16.602;2022-09-20T11:10:23;22.30;52.60
65231;DHT22;51813;40.666;16.602;2022-09-20T11:16:29;22.30;52.70
65231;DHT22;51813;40.666;16.602;2022-09-20T11:21:56;22.30;52.70
65231;DHT22;51813;40.666;16.602;2022-09-20T11:27:22;22.30;52.50
65231;DHT22;51813;40.666;16.602;2022-09-20T11:33:32;22.40;52.80
65231;DHT22;51813;40.666;16.602;2022-09-20T11:41:27;22.50;52.30
65231;DHT22;51813;40.666;16.602;2022-09-20T11:43:55;22.70;52.10
65231;DHT22;51813;40.666;16.602;2022-09-20T11:46:27;22.70;51.40
65231;DHT22;51813;40.666;16.602;2022-09-20T11:49:04;22.80;51.50
65231;DHT22;51813;40.666;16.602;2022-09-20T11:51:53;22.80;51.00
65231;DHT22;51813;40.666;16.602;2022-09-20T11:54:47;22.80;50.70
65231;DHT22;51813;40.666;16.602;2022-09-20T11:57:19;22.90;50.70
65231;DHT22;51813;40.666;16.602;2022-09-20T11:59:51;23.00;50.60
65231;DHT22;51813;40.666;16.602;2022-09-20T12:05:22;23.10;50.30
65231;DHT22;51813;40.666;16.602;2022-09-20T12:07:52;23.20;50.00
65231;DHT22;51813;40.666;16.602;2022-09-20T12:10:23;23.30;49.90
65231;DHT22;51813;40.666;16.602;2022-09-20T12:12:56;23.30;49.90
65231;DHT22;51813;40.666;16.602;2022-09-20T12:15:28;23.20;50.00
65231;DHT22;51813;40.666;16.602;2022-09-20T12:26:08;23.40;49.60
65231;DHT22;51813;40.666;16.602;2022-09-20T12:28:38;23.40;49.40
65231;DHT22;51813;40.666;16.602;2022-09-20T12:36:25;23.30;49.50
65231;DHT22;51813;40.666;16.602;2022-09-20T12:41:55;23.30;49.50
65231;DHT22;51813;40.666;16.602;2022-09-20T12:44:37;23.30;49.70
65231;DHT22;51813;40.666;16.602;2022-09-20T13:00:47;23.40;50.00
65231;DHT22;51813;40.666;16.602;2022-09-20T13:03:33;23.40;50.20
65231;DHT22;51813;40.666;16.602;2022-09-20T13:11:48;23.50;50.10
65231;DHT22;51813;40.666;16.602;2022-09-20T13:14:30;23.50;50.20
65231;DHT22;51813;40.666;16.602;2022-09-20T13:17:01;23.50;50.20
65231;DHT22;51813;40.666;16.602;2022-09-20T13:19:28;23.50;50.00
65231;DHT22;51813;40.666;16.602;2022-09-20T13:24:56;23.30;50.30
65231;DHT22;51813;40.666;16.602;2022-09-20T13:27:38;23.30;50.10
65231;DHT22;51813;40.666;16.602;2022-09-20T13:30:26;23.30;50.30
65231;DHT22;51813;40.666;16.602;2022-09-20T13:32:53;23.40;50.10
65231;DHT22;51813;40.666;16.602;2022-09-20T13:35:22;23.50;50.20
65231;DHT22;51813;40.666;16.602;2022-09-20T13:37:56;23.50;50.10
65231;DHT22;51813;40.666;16.602;2022-09-20T13:40:34;23.50;50.20
65231;DHT22;51813;40.666;16.602;2022-09-20T13:45:46;23.50;50.10
65231;DHT22;51813;40.666;16.602;2022-09-20T13:48:15;23.50;49.90
65231;DHT22;51813;40.666;16.602;2022-09-20T13:50:41;23.40;50.10
65231;DHT22;51813;40.666;16.602;2022-09-20T13:53:15;23.40;49.80
65231;DHT22;51813;40.666;16.602;2022-09-20T13:55:42;23.40;49.70
65231;DHT22;51813;40.666;16.602;2022-09-20T13:58:18;23.50;50.80
65231;DHT22;51813;40.666;16.602;2022-09-20T14:00:53;23.40;50.20
65231;DHT22;51813;40.666;16.602;2022-09-20T14:03:20;23.40;50.20
65231;DHT22;51813;40.666;16.602;2022-09-20T14:06:08;23.50;50.10
65231;DHT22;51813;40.666;16.602;2022-09-20T14:08:37;23.50;50.30
65231;DHT22;51813;40.666;16.602;2022-09-20T14:11:12;23.50;50.00
65231;DHT22;51813;40.666;16.602;2022-09-20T14:13:42;23.40;50.10
65231;DHT22;51813;40.666;16.602;2022-09-20T14:16:10;23.40;49.70
65231;DHT22;51813;40.666;16.602;2022-09-20T14:18:39;23.50;49.80
65231;DHT22;51813;40.666;16.602;2022-09-20T14:21:07;23.50;50.10
65231;DHT22;51813;40.666;16.602;2022-09-20T14:28:42;23.50;50.20
65231;DHT22;51813;40.666;16.602;2022-09-20T14:31:15;23.50;50.00
65231;DHT22;51813;40.666;16.602;2022-09-20T14:33:44;23.50;50.10
65231;DHT22;51813;40.666;16.602;2022-09-20T14:36:13;23.50;50.00
65231;DHT22;51813;40.666;16.602;2022-09-20T14:38:42;23.40;49.90
65231;DHT22;51813;40.666;16.602;2022-09-20T14:41:10;23.40;49.60
65231;DHT22;51813;40.666;16.602;2022-09-20T14:43:36;23.40;50.00
65231;DHT22;51813;40.666;16.602;2022-09-20T14:46:10;23.50;49.70
65231;DHT22;51813;40.666;16.602;2022-09-20T14:48:38;23.50;49.10
65231;DHT22;51813;40.666;16.602;2022-09-20T14:51:10;23.50;49.40
65231;DHT22;51813;40.666;16.602;2022-09-20T14:53:37;23.60;49.70
65231;DHT22;51813;40.666;16.602;2022-09-20T14:58:28;23.50;49.50
65231;DHT22;51813;40.666;16.602;2022-09-20T15:01:22;23.60;49.30
65231;DHT22;51813;40.666;16.602;2022-09-20T15:03:48;23.60;49.10
65231;DHT22;51813;40.666;16.602;2022-09-20T15:06:14;23.50;48.70
65231;DHT22;51813;40.666;16.602;2022-09-20T15:08:40;23.50;48.80
65231;DHT22;51813;40.666;16.602;2022-09-20T15:11:10;23.50;49.00
65231;DHT22;51813;40.666;16.602;2022-09-20T15:13:38;23.50;49.10
65231;DHT22;51813;40.666;16.602;2022-09-20T15:16:03;23.50;49.10
65231;DHT22;51813;40.666;16.602;2022-09-20T15:18:40;23.50;49.20
65231;DHT22;51813;40.666;16.602;2022-09-20T15:21:06;23.50;49.10
65231;DHT22;51813;40.666;16.602;2022-09-20T15:23:33;23.50;49.10
65231;DHT22;51813;40.666;16.602;2022-09-20T15:25:59;23.60;48.80
65231;DHT22;51813;40.666;16.602;2022-09-20T15:28:25;23.60;49.10
65231;DHT22;51813;40.666;16.602;2022-09-20T15:30:52;23.50;48.80
65231;DHT22;51813;40.666;16.602;2022-09-20T15:33:19;23.50;49.00
65231;DHT22;51813;40.666;16.602;2022-09-20T15:35:45;23.50;49.10
65231;DHT22;51813;40.666;16.602;2022-09-20T15:38:12;23.50;49.10
65231;DHT22;51813;40.666;16.602;2022-09-20T15:40:42;23.50;49.00
65231;DHT22;51813;40.666;16.602;2022-09-20T15:43:12;23.50;48.90
65231;DHT22;51813;40.666;16.602;2022-09-20T15:45:45;23.60;48.90
65231;DHT22;51813;40.666;16.602;2022-09-20T15:48:13;23.50;48.80
65231;DHT22;51813;40.666;16.602;2022-09-20T15:50:39;23.50;48.60
65231;DHT22;51813;40.666;16.602;2022-09-20T15:53:08;23.50;48.70
65231;DHT22;51813;40.666;16.602;2022-09-20T15:55:35;23.50;48.50
65231;DHT22;51813;40.666;16.602;2022-09-20T15:58:01;23.50;48.50
65231;DHT22;51813;40.666;16.602;2022-09-20T16:00:28;23.40;48.70
65231;DHT22;51813;40.666;16.602;2022-09-20T16:02:53;23.50;49.00
65231;DHT22;51813;40.666;16.602;2022-09-20T16:05:19;23.40;48.50
65231;DHT22;51813;40.666;16.602;2022-09-20T16:07:45;23.40;48.30
65231;DHT22;51813;40.666;16.602;2022-09-20T16:10:11;23.40;48.50
65231;DHT22;51813;40.666;16.602;2022-09-20T16:12:37;23.40;48.70
65231;DHT22;51813;40.666;16.602;2022-09-20T16:15:03;23.50;48.60
65231;DHT22;51813;40.666;16.602;2022-09-20T16:17:29;23.40;48.00
65231;DHT22;51813;40.666;16.602;2022-09-20T16:20:13;23.40;47.80
65231;DHT22;51813;40.666;16.602;2022-09-20T16:22:38;23.30;47.90
65231;DHT22;51813;40.666;16.602;2022-09-20T16:25:04;23.40;47.60
65231;DHT22;51813;40.666;16.602;2022-09-20T16:27:31;23.40;47.20
65231;DHT22;51813;40.666;16.602;2022-09-20T16:29:59;23.40;47.10
65231;DHT22;51813;40.666;16.602;2022-09-20T16:32:24;23.30;46.90
65231;DHT22;51813;40.666;16.602;2022-09-20T16:34:50;23.30;47.20
65231;DHT22;51813;40.666;16.602;2022-09-20T16:37:19;23.40;46.90
65231;DHT22;51813;40.666;16.602;2022-09-20T16:39:45;23.40;46.50
65231;DHT22;51813;40.666;16.602;2022-09-20T16:42:11;23.40;46.90
65231;DHT22;51813;40.666;16.602;2022-09-20T16:44:39;23.30;46.60
65231;DHT22;51813;40.666;16.602;2022-09-20T16:47:09;23.30;46.50
65231;DHT22;51813;40.666;16.602;2022-09-20T16:49:36;23.40;46.70
65231;DHT22;51813;40.666;16.602;2022-09-20T16:52:08;23.40;46.40
65231;DHT22;51813;40.666;16.602;2022-09-20T16:54:35;23.40;45.90
65231;DHT22;51813;40.666;16.602;2022-09-20T16:57:01;23.40;46.30
65231;DHT22;51813;40.666;16.602;2022-09-20T16:59:27;23.30;46.20
65231;DHT22;51813;40.666;16.602;2022-09-20T17:01:53;23.40;46.10
65231;DHT22;51813;40.666;16.602;2022-09-20T17:04:19;23.40;45.80
65231;DHT22;51813;40.666;16.602;2022-09-20T17:06:46;23.40;46.20
65231;DHT22;51813;40.666;16.602;2022-09-20T17:09:13;23.30;45.90
65231;DHT22;51813;40.666;16.602;2022-09-20T17:11:41;23.30;46.50
65231;DHT22;51813;40.666;16.602;2022-09-20T17:14:09;23.30;45.80
65231;DHT22;51813;40.666;16.602;2022-09-20T17:16:36;23.30;46.00
65231;DHT22;51813;40.666;16.602;2022-09-20T17:19:05;23.30;45.80
65231;DHT22;51813;40.666;16.602;2022-09-20T17:21:32;23.30;45.90
65231;DHT22;51813;40.666;16.602;2022-09-20T17:24:01;23.30;45.30
65231;DHT22;51813;40.666;16.602;2022-09-20T17:26:39;23.30;45.20
65231;DHT22;51813;40.666;16.602;2022-09-20T17:29:07;23.30;45.20
65231;DHT22;51813;40.666;16.602;2022-09-20T17:31:37;23.30;45.50
65231;DHT22;51813;40.666;16.602;2022-09-20T17:34:05;23.20;45.00
65231;DHT22;51813;40.666;16.602;2022-09-20T17:36:34;23.20;45.20
65231;DHT22;51813;40.666;16.602;2022-09-20T17:39:01;23.20;45.00
65231;DHT22;51813;40.666;16.602;2022-09-20T17:41:28;23.10;44.60
65231;DHT22;51813;40.666;16.602;2022-09-20T17:43:55;23.20;44.10
65231;DHT22;51813;40.666;16.602;2022-09-20T17:46:23;23.10;44.60
65231;DHT22;51813;40.666;16.602;2022-09-20T17:48:55;23.10;44.80
65231;DHT22;51813;40.666;16.602;2022-09-20T17:51:27;23.10;44.60
65231;DHT22;51813;40.666;16.602;2022-09-20T17:53:53;23.10;44.80
65231;DHT22;51813;40.666;16.602;2022-09-20T17:56:20;23.10;44.60
65231;DHT22;51813;40.666;16.602;2022-09-20T17:58:48;23.10;45.00
65231;DHT22;51813;40.666;16.602;2022-09-20T18:01:16;23.00;44.90
65231;DHT22;51813;40.666;16.602;2022-09-20T18:03:45;23.00;45.00
65231;DHT22;51813;40.666;16.602;2022-09-20T18:06:22;23.00;45.40
65231;DHT22;51813;40.666;16.602;2022-09-20T18:08:53;23.00;45.40
65231;DHT22;51813;40.666;16.602;2022-09-20T18:11:21;23.00;45.20
65231;DHT22;51813;40.666;16.602;2022-09-20T18:13:47;23.00;45.20
65231;DHT22;51813;40.666;16.602;2022-09-20T18:16:15;23.10;44.80
65231;DHT22;51813;40.666;16.602;2022-09-20T18:18:42;23.10;44.70
65231;DHT22;51813;40.666;16.602;2022-09-20T18:21:13;23.10;44.60
65231;DHT22;51813;40.666;16.602;2022-09-20T18:23:39;23.10;44.50
65231;DHT22;51813;40.666;16.602;2022-09-20T18:26:16;23.10;45.50
65231;DHT22;51813;40.666;16.602;2022-09-20T18:28:58;23.10;44.30
65231;DHT22;51813;40.666;16.602;2022-09-20T18:34:02;23.10;44.10
65231;DHT22;51813;40.666;16.602;2022-09-20T18:36:30;23.00;43.70
65231;DHT22;51813;40.666;16.602;2022-09-20T18:38:56;23.00;43.70
65231;DHT22;51813;40.666;16.602;2022-09-20T18:41:25;23.00;43.60
65231;DHT22;51813;40.666;16.602;2022-09-20T18:43:52;23.00;42.80
65231;DHT22;51813;40.666;16.602;2022-09-20T18:46:18;23.10;43.30
65231;DHT22;51813;40.666;16.602;2022-09-20T18:48:49;23.00;42.80
65231;DHT22;51813;40.666;16.602;2022-09-20T18:51:15;23.00;42.80
65231;DHT22;51813;40.666;16.602;2022-09-20T18:53:41;23.00;42.80
65231;DHT22;51813;40.666;16.602;2022-09-20T18:59:09;22.90;42.80
65231;DHT22;51813;40.666;16.602;2022-09-20T19:10:31;22.80;42.70
65231;DHT22;51813;40.666;16.602;2022-09-20T19:21:47;22.60;43.50
65231;DHT22;51813;40.666;16.602;2022-09-20T19:27:13;22.50;44.00
65231;DHT22;51813;40.666;16.602;2022-09-20T19:29:39;22.50;44.30
65231;DHT22;51813;40.666;16.602;2022-09-20T19:32:08;22.40;44.40
65231;DHT22;51813;40.666;16.602;2022-09-20T19:34:38;22.40;44.70
65231;DHT22;51813;40.666;16.602;2022-09-20T19:40:06;22.40;44.50
65231;DHT22;51813;40.666;16.602;2022-09-20T19:50:52;22.20;44.80
65231;DHT22;51813;40.666;16.602;2022-09-20T19:53:20;22.20;45.40
65231;DHT22;51813;40.666;16.602;2022-09-20T19:55:51;22.10;45.40
65231;DHT22;51813;40.666;16.602;2022-09-20T19:58:18;22.20;45.50
65231;DHT22;51813;40.666;16.602;2022-09-20T20:00:45;22.10;45.50
65231;DHT22;51813;40.666;16.602;2022-09-20T20:03:12;22.20;45.20
65231;DHT22;51813;40.666;16.602;2022-09-20T20:05:56;22.20;45.20
65231;DHT22;51813;40.666;16.602;2022-09-20T20:08:31;22.20;45.20
65231;DHT22;51813;40.666;16.602;2022-09-20T20:13:54;22.10;45.60
65231;DHT22;51813;40.666;16.602;2022-09-20T20:24:53;22.00;45.20
65231;DHT22;51813;40.666;16.602;2022-09-20T20:27:21;22.00;46.30
65231;DHT22;51813;40.666;16.602;2022-09-20T20:29:47;22.00;46.70
65231;DHT22;51813;40.666;16.602;2022-09-20T20:32:14;22.00;46.20
65231;DHT22;51813;40.666;16.602;2022-09-20T20:34:40;22.00;46.40
65231;DHT22;51813;40.666;16.602;2022-09-20T20:37:06;22.00;46.00
65231;DHT22;51813;40.666;16.602;2022-09-20T20:39:32;21.90;45.50
65231;DHT22;51813;40.666;16.602;2022-09-20T20:41:59;21.90;46.30
65231;DHT22;51813;40.666;16.602;2022-09-20T20:44:29;21.90;46.10
65231;DHT22;51813;40.666;16.602;2022-09-20T20:46:55;21.90;46.30
65231;DHT22;51813;40.666;16.602;2022-09-20T20:49:21;21.90;45.80
65231;DHT22;51813;40.666;16.602;2022-09-20T20:51:47;21.90;46.70
65231;DHT22;51813;40.666;16.602;2022-09-20T20:54:13;21.80;47.80
65231;DHT22;51813;40.666;16.602;2022-09-20T20:56:39;21.80;46.90
65231;DHT22;51813;40.666;16.602;2022-09-20T20:59:05;21.90;46.70
65231;DHT22;51813;40.666;16.602;2022-09-20T21:01:36;21.90;46.50
65231;DHT22;51813;40.666;16.602;2022-09-20T21:04:03;21.90;46.60
65231;DHT22;51813;40.666;16.602;2022-09-20T21:06:31;21.90;46.90
65231;DHT22;51813;40.666;16.602;2022-09-20T21:08:59;21.80;45.90
65231;DHT22;51813;40.666;16.602;2022-09-20T21:11:27;21.80;45.50
65231;DHT22;51813;40.666;16.602;2022-09-20T21:13:57;21.80;45.50
65231;DHT22;51813;40.666;16.602;2022-09-20T21:16:25;21.80;46.90
65231;DHT22;51813;40.666;16.602;2022-09-20T21:18:51;21.80;48.30
65231;DHT22;51813;40.666;16.602;2022-09-20T21:21:19;21.80;49.20
65231;DHT22;51813;40.666;16.602;2022-09-20T21:23:48;21.80;47.50
65231;DHT22;51813;40.666;16.602;2022-09-20T21:26:14;21.70;46.80
65231;DHT22;51813;40.666;16.602;2022-09-20T21:28:45;21.80;47.00
65231;DHT22;51813;40.666;16.602;2022-09-20T21:31:13;21.80;46.10
65231;DHT22;51813;40.666;16.602;2022-09-20T21:33:40;21.70;45.70
65231;DHT22;51813;40.666;16.602;2022-09-20T21:36:11;21.70;46.10
65231;DHT22;51813;40.666;16.602;2022-09-20T21:38:38;21.70;45.80
65231;DHT22;51813;40.666;16.602;2022-09-20T21:41:10;21.60;46.00
65231;DHT22;51813;40.666;16.602;2022-09-20T21:43:37;21.60;45.40
65231;DHT22;51813;40.666;16.602;2022-09-20T21:46:13;21.50;47.30
65231;DHT22;51813;40.666;16.602;2022-09-20T21:48:39;21.60;47.20
65231;DHT22;51813;40.666;16.602;2022-09-20T21:51:06;21.60;47.50
65231;DHT22;51813;40.666;16.602;2022-09-20T21:53:33;21.60;46.60
65231;DHT22;51813;40.666;16.602;2022-09-20T21:56:01;21.60;47.40
65231;DHT22;51813;40.666;16.602;2022-09-20T21:58:27;21.60;46.30
65231;DHT22;51813;40.666;16.602;2022-09-20T22:03:36;21.70;46.30
65231;DHT22;51813;40.666;16.602;2022-09-20T22:06:09;21.70;46.50
65231;DHT22;51813;40.666;16.602;2022-09-20T22:08:37;21.60;46.70
65231;DHT22;51813;40.666;16.602;2022-09-20T22:11:04;21.60;48.40
65231;DHT22;51813;40.666;16.602;2022-09-20T22:13:29;21.60;48.80